createdAt,value
2022-12-16T00:00:19.371Z,89.99
2022-12-16T00:02:47.050Z,88.98
2022-12-16T00:05:14.812Z,89.28
2022-12-16T00:07:42.197Z,88.21
2022-12-16T00:10:10.072Z,88.86
2022-12-16T00:12:37.409Z,88.46
2022-12-16T00:15:05.163Z,88.91
2022-12-16T00:17:32.891Z,88.92
2022-12-16T00:20:00.304Z,88.63
2022-12-16T00:22:28.119Z,90.30
2022-12-16T00:24:55.781Z,89.70
2022-12-16T00:27:23.165Z,88.93
2022-12-16T00:29:50.523Z,89.34
2022-12-16T00:32:18.175Z,89.50
2022-12-16T00:34:45.537Z,90.90
2022-12-16T00:37:13.468Z,89.60
2022-12-16T00:39:41.088Z,89.10
2022-12-16T00:42:08.874Z,89.48
2022-12-16T00:44:36.317Z,89.08
2022-12-16T00:47:08.902Z,88.73
2022-12-16T00:49:36.934Z,88.85
2022-12-16T00:52:04.746Z,89.11
2022-12-16T00:54:32.090Z,88.45
2022-12-16T00:56:59.443Z,88.16
2022-12-16T00:59:27.076Z,89.09
2022-12-16T01:01:54.474Z,88.23
2022-12-16T01:04:22.799Z,88.61
2022-12-16T01:06:50.435Z,87.59
2022-12-16T01:09:17.915Z,88.63
2022-12-16T01:11:45.253Z,88.15
2022-12-16T01:14:13.009Z,89.26
2022-12-16T01:16:40.419Z,90.63
2022-12-16T01:19:08.240Z,90.76
2022-12-16T01:21:35.941Z,91.48
2022-12-16T01:24:03.325Z,92.13
2022-12-16T01:26:31.807Z,91.11
2022-12-16T01:28:59.511Z,92.08
2022-12-16T01:31:26.921Z,94.57
2022-12-16T01:33:54.348Z,93.97
2022-12-16T01:36:23.180Z,93.74
2022-12-16T01:38:50.521Z,95.01
2022-12-16T01:41:18.537Z,92.79
2022-12-16T01:43:46.586Z,92.97
2022-12-16T01:46:18.829Z,90.86
2022-12-16T01:48:49.436Z,92.70
2022-12-16T01:51:34.932Z,93.40
2022-12-16T01:54:10.784Z,92.54
2022-12-16T01:56:41.554Z,94.13
2022-12-16T01:59:09.329Z,93.18
2022-12-16T02:01:36.745Z,93.64
2022-12-16T02:04:04.481Z,93.42
2022-12-16T02:06:33.323Z,94.33
2022-12-16T02:09:03.412Z,95.98
2022-12-16T02:11:43.002Z,94.80
2022-12-16T02:14:29.372Z,94.10
2022-12-16T02:17:02.386Z,93.34
2022-12-16T02:19:45.100Z,95.61
2022-12-16T02:22:46.732Z,95.62
2022-12-16T02:25:34.741Z,94.89
2022-12-16T02:28:04.528Z,94.79
2022-12-16T02:30:52.750Z,94.97
2022-12-16T02:33:31.891Z,93.87
2022-12-16T02:36:26.623Z,91.78
2022-12-16T02:39:05.175Z,93.03
2022-12-16T02:41:35.844Z,93.51
2022-12-16T02:44:09.508Z,96.08
2022-12-16T02:46:42.728Z,96.71
2022-12-16T02:49:30.512Z,94.76
2022-12-16T02:51:59.620Z,93.52
2022-12-16T02:54:27.920Z,93.60
2022-12-16T02:57:17.267Z,93.27
2022-12-16T03:00:05.919Z,91.32
2022-12-16T03:02:36.665Z,92.16
2022-12-16T03:05:12.815Z,93.56
2022-12-16T03:07:41.499Z,92.96
2022-12-16T03:10:13.222Z,94.01
2022-12-16T03:12:42.261Z,94.65
2022-12-16T03:15:10.691Z,94.82
2022-12-16T03:17:38.779Z,93.25
2022-12-16T03:20:12.301Z,96.30
2022-12-16T03:22:43.008Z,97.86
2022-12-16T03:25:11.160Z,96.22
2022-12-16T03:27:56.391Z,93.73
2022-12-16T03:30:36.816Z,93.92
2022-12-16T03:33:09.183Z,94.02
2022-12-16T03:35:40.646Z,94.60
2022-12-16T03:38:10.556Z,94.25
2022-12-16T03:40:38.814Z,95.07
2022-12-16T03:43:06.875Z,95.80
2022-12-16T03:45:39.577Z,96.42
2022-12-16T03:48:08.942Z,95.38
2022-12-16T03:50:37.224Z,96.34
2022-12-16T03:53:05.700Z,95.87
2022-12-16T03:55:33.580Z,94.51
2022-12-16T03:58:01.000Z,95.82
2022-12-16T04:00:28.348Z,94.97
2022-12-16T04:02:56.188Z,95.26
2022-12-16T04:05:23.795Z,93.75
2022-12-16T04:07:51.137Z,95.05
2022-12-16T04:10:38.794Z,96.46
2022-12-16T04:13:26.378Z,96.27
2022-12-16T04:16:13.025Z,98.31
2022-12-16T04:18:59.600Z,98.37
2022-12-16T04:21:46.243Z,94.36
2022-12-16T04:24:19.376Z,94.33
2022-12-16T04:27:13.432Z,96.44
2022-12-16T04:30:02.470Z,93.83
2022-12-16T04:32:49.893Z,94.72
2022-12-16T04:35:35.798Z,93.01
2022-12-16T04:38:22.199Z,94.40
2022-12-16T04:41:08.223Z,92.32
2022-12-16T04:43:54.431Z,94.22
2022-12-16T04:46:40.427Z,94.21
2022-12-16T04:49:27.296Z,93.64
2022-12-16T04:52:13.231Z,93.07
2022-12-16T04:55:16.215Z,93.47
2022-12-16T04:58:11.234Z,95.79
2022-12-16T05:00:57.519Z,94.17
2022-12-16T05:03:44.121Z,94.82
2022-12-16T05:06:30.843Z,93.62
2022-12-16T05:09:17.291Z,96.12
2022-12-16T05:12:03.336Z,94.75
2022-12-16T05:14:49.272Z,94.40
2022-12-16T05:17:35.681Z,95.98
2022-12-16T05:20:22.234Z,96.77
2022-12-16T05:23:08.576Z,97.50
2022-12-16T05:25:54.906Z,94.92
2022-12-16T05:28:41.022Z,94.44
2022-12-16T05:31:27.579Z,95.02
2022-12-16T05:34:13.903Z,95.04
2022-12-16T05:36:59.955Z,93.58
2022-12-16T05:39:46.254Z,92.91
2022-12-16T05:42:32.075Z,94.38
2022-12-16T05:45:18.010Z,91.91
2022-12-16T05:48:06.932Z,92.35
2022-12-16T05:50:53.240Z,93.27
2022-12-16T05:53:42.089Z,94.56
2022-12-16T05:56:28.288Z,93.92
2022-12-16T05:59:14.456Z,91.96
2022-12-16T06:02:00.582Z,93.37
2022-12-16T06:04:46.711Z,94.67
2022-12-16T06:07:32.679Z,94.30
2022-12-16T06:10:18.771Z,93.14
2022-12-16T06:13:06.125Z,94.68
2022-12-16T06:16:08.808Z,93.69
2022-12-16T06:18:55.086Z,96.24
2022-12-16T06:21:41.395Z,96.15
2022-12-16T06:24:27.370Z,95.64
2022-12-16T06:27:13.947Z,94.96
2022-12-16T06:29:59.916Z,93.86
2022-12-16T06:32:46.253Z,93.42
2022-12-16T06:35:32.345Z,93.14
2022-12-16T06:38:18.699Z,92.68
2022-12-16T06:41:04.351Z,91.91
2022-12-16T06:43:50.730Z,93.13
2022-12-16T06:46:36.753Z,90.51
2022-12-16T06:49:23.223Z,89.55
2022-12-16T06:52:09.022Z,89.37
2022-12-16T06:54:55.390Z,90.02
2022-12-16T06:57:41.278Z,90.47
2022-12-16T07:00:28.455Z,89.18
2022-12-16T07:03:14.520Z,88.89
2022-12-16T07:06:00.809Z,90.29
2022-12-16T07:08:57.575Z,88.79
2022-12-16T07:11:43.753Z,87.32
2022-12-16T07:14:29.870Z,90.91
2022-12-16T07:17:17.436Z,89.90
2022-12-16T07:20:03.544Z,89.18
2022-12-16T07:22:56.162Z,86.73
2022-12-16T07:25:47.469Z,88.86
2022-12-16T07:28:34.137Z,87.06
2022-12-16T07:31:20.097Z,89.68
2022-12-16T07:34:23.120Z,90.16
2022-12-16T07:37:09.478Z,88.76
2022-12-16T07:39:55.720Z,91.06
2022-12-16T07:42:42.291Z,89.30
2022-12-16T07:45:29.354Z,91.25
2022-12-16T07:48:15.556Z,91.10
2022-12-16T07:51:01.873Z,92.14
2022-12-16T07:53:48.333Z,92.04
2022-12-16T07:56:35.390Z,92.90
2022-12-16T07:59:21.509Z,90.89
2022-12-16T08:02:07.891Z,88.42
2022-12-16T08:04:55.185Z,89.18
2022-12-16T08:07:41.682Z,87.43
2022-12-16T08:10:28.455Z,88.01
2022-12-16T08:13:32.228Z,89.33
2022-12-16T08:16:25.890Z,89.28
2022-12-16T08:19:11.690Z,87.73
2022-12-16T08:21:58.034Z,86.87
2022-12-16T08:24:48.229Z,86.90
2022-12-16T08:27:37.541Z,86.58
2022-12-16T08:30:24.069Z,87.08
2022-12-16T08:33:18.371Z,88.48
2022-12-16T08:36:06.420Z,87.99
2022-12-16T08:38:52.878Z,88.33
2022-12-16T08:41:38.843Z,87.71
2022-12-16T08:44:25.181Z,87.73
2022-12-16T08:47:11.321Z,88.37
2022-12-16T08:49:59.923Z,87.92
2022-12-16T08:52:49.427Z,88.25
2022-12-16T08:55:35.881Z,87.10
2022-12-16T08:58:21.864Z,86.14
2022-12-16T09:01:08.255Z,87.71
2022-12-16T09:03:55.503Z,84.95
2022-12-16T09:06:41.871Z,84.77
2022-12-16T09:09:28.017Z,87.44
2022-12-16T09:12:14.081Z,85.33
2022-12-16T09:15:00.094Z,86.47
2022-12-16T09:17:46.430Z,85.15
2022-12-16T09:20:32.939Z,84.94
2022-12-16T09:23:23.455Z,83.78
2022-12-16T09:26:09.262Z,82.77
2022-12-16T09:28:55.808Z,81.88
2022-12-16T09:31:42.246Z,81.55
2022-12-16T09:34:45.560Z,82.56
2022-12-16T09:37:31.627Z,82.11
2022-12-16T09:40:17.951Z,88.82
2022-12-16T09:43:03.649Z,87.96
2022-12-16T09:45:56.401Z,85.17
2022-12-16T09:49:01.004Z,85.11
2022-12-16T09:51:47.873Z,81.26
2022-12-16T09:54:35.334Z,79.93
2022-12-16T09:57:22.363Z,78.21
2022-12-16T10:00:15.968Z,78.56
2022-12-16T10:03:06.811Z,79.32
2022-12-16T10:06:20.195Z,81.52
2022-12-16T10:09:17.182Z,85.96
2022-12-16T10:12:16.159Z,86.17
2022-12-16T10:15:13.095Z,88.53
2022-12-16T10:18:04.247Z,92.68
2022-12-16T10:21:04.172Z,97.64
2022-12-16T10:24:12.844Z,95.81
2022-12-16T10:27:14.718Z,93.14
2022-12-16T10:30:02.250Z,93.80
2022-12-16T10:33:11.150Z,98.86
2022-12-16T10:36:08.546Z,97.12
2022-12-16T10:39:01.091Z,93.07
2022-12-16T10:41:51.335Z,87.52
2022-12-16T10:45:02.436Z,96.01
2022-12-16T10:48:05.404Z,98.77
2022-12-16T10:50:51.713Z,97.37
2022-12-16T10:53:46.129Z,90.05
2022-12-16T10:56:51.199Z,94.13
2022-12-16T10:59:37.548Z,98.59
2022-12-16T11:02:37.091Z,92.08
2022-12-16T11:05:47.486Z,89.63
2022-12-16T11:08:52.175Z,89.56
2022-12-16T11:11:41.390Z,89.14
2022-12-16T11:14:35.291Z,99.90
2022-12-16T11:17:44.647Z,100.00
2022-12-16T11:20:38.640Z,97.11
2022-12-16T11:23:39.383Z,98.40
2022-12-16T11:26:36.756Z,100.00
2022-12-16T11:29:34.323Z,100.00
2022-12-16T11:32:25.946Z,99.57
2022-12-16T11:35:15.355Z,100.00
2022-12-16T11:38:02.802Z,100.00
2022-12-16T11:40:49.255Z,100.00
2022-12-16T11:43:37.181Z,100.00
2022-12-16T11:46:38.646Z,100.00
2022-12-16T11:49:28.039Z,100.00
2022-12-16T11:52:36.475Z,100.00
2022-12-16T11:59:04.552Z,100.00
2022-12-16T12:01:55.660Z,100.00
2022-12-16T12:04:41.886Z,100.00
2022-12-16T12:07:45.461Z,100.00
2022-12-16T12:10:59.747Z,96.20
2022-12-16T12:14:07.014Z,90.51
2022-12-16T12:17:25.412Z,91.31
2022-12-16T12:20:49.569Z,89.94
2022-12-16T12:23:45.280Z,91.12
2022-12-16T12:26:32.889Z,92.32
2022-12-16T12:29:47.614Z,92.36
2022-12-16T12:32:49.138Z,92.33
2022-12-16T12:36:10.204Z,94.05
2022-12-16T12:39:36.493Z,94.07
2022-12-16T12:42:32.149Z,93.59
2022-12-16T12:45:24.553Z,94.29
2022-12-16T12:48:36.188Z,98.30
2022-12-16T12:51:44.945Z,94.31
2022-12-16T12:54:39.841Z,93.06
2022-12-16T12:57:28.480Z,96.15
2022-12-16T13:00:46.950Z,94.97
2022-12-16T13:03:46.228Z,94.62
2022-12-16T13:06:34.254Z,91.93
2022-12-16T13:09:20.185Z,95.99
2022-12-16T13:12:24.933Z,88.58
2022-12-16T13:15:33.389Z,86.48
2022-12-16T13:18:19.819Z,87.08
2022-12-16T13:21:13.501Z,87.57
2022-12-16T13:24:03.928Z,86.94
2022-12-16T13:26:52.079Z,94.15
2022-12-16T13:29:44.391Z,94.49
2022-12-16T13:32:30.366Z,95.43
2022-12-16T13:35:29.575Z,95.47
2022-12-16T13:38:18.076Z,97.61
2022-12-16T13:41:22.031Z,98.07
2022-12-16T13:44:14.589Z,96.25
2022-12-16T13:47:21.111Z,93.61
2022-12-16T13:50:09.276Z,94.10
2022-12-16T13:52:58.632Z,92.79
2022-12-16T13:55:49.874Z,87.76
2022-12-16T13:58:45.310Z,89.13
2022-12-16T14:01:35.065Z,88.99
2022-12-16T14:04:21.526Z,85.11
2022-12-16T14:07:08.187Z,87.36
2022-12-16T14:09:56.590Z,92.57
2022-12-16T14:12:55.487Z,88.26
2022-12-16T14:15:50.634Z,89.00
2022-12-16T14:19:04.474Z,88.50
2022-12-16T14:21:58.898Z,89.74
2022-12-16T14:24:46.059Z,87.16
2022-12-16T14:27:54.261Z,85.65
2022-12-16T14:30:44.265Z,87.14
2022-12-16T14:33:56.880Z,87.71
2022-12-16T14:36:45.176Z,85.32
2022-12-16T14:39:42.667Z,82.78
2022-12-16T14:42:41.091Z,81.46
2022-12-16T14:45:44.292Z,86.60
2022-12-16T14:48:34.472Z,87.82
2022-12-16T14:51:52.763Z,87.48
2022-12-16T14:54:44.657Z,83.30
2022-12-16T14:57:34.424Z,80.92
2022-12-16T15:00:26.637Z,78.42
2022-12-16T15:03:23.281Z,78.46
2022-12-16T15:06:10.042Z,79.39
2022-12-16T15:09:08.956Z,87.39
2022-12-16T15:11:55.906Z,91.68
2022-12-16T15:14:51.572Z,88.45
2022-12-16T15:17:43.609Z,91.52
2022-12-16T15:20:41.243Z,97.25
2022-12-16T15:23:49.134Z,94.77
2022-12-16T15:26:41.266Z,100.00
2022-12-16T15:29:47.182Z,100.00
2022-12-16T15:32:53.608Z,100.00
2022-12-16T15:35:44.361Z,100.00
2022-12-16T15:38:33.879Z,100.00
2022-12-16T15:41:21.008Z,100.00
2022-12-16T15:44:07.979Z,99.83
2022-12-16T15:46:54.425Z,100.00
2022-12-16T15:49:43.050Z,96.17
2022-12-16T15:52:56.647Z,100.00
2022-12-16T15:56:02.592Z,100.00
2022-12-16T15:58:55.490Z,100.00
2022-12-16T16:01:44.452Z,94.71
2022-12-16T16:04:45.774Z,94.79
2022-12-16T16:07:34.934Z,94.79
2022-12-16T16:10:27.489Z,95.89
2022-12-16T16:13:13.395Z,98.53
2022-12-16T16:15:59.387Z,99.03
2022-12-16T16:18:45.271Z,96.91
2022-12-16T16:21:31.525Z,93.88
2022-12-16T16:24:17.679Z,98.65
2022-12-16T16:27:04.315Z,99.29
2022-12-16T16:29:50.255Z,90.94
2022-12-16T16:32:36.467Z,93.85
2022-12-16T16:35:22.543Z,95.31
2022-12-16T16:38:08.506Z,89.41
2022-12-16T16:40:57.627Z,94.17
2022-12-16T16:43:44.455Z,89.98
2022-12-16T16:46:39.811Z,88.93
2022-12-16T16:49:30.492Z,90.88
2022-12-16T16:52:16.671Z,90.41
2022-12-16T16:55:02.963Z,90.05
2022-12-16T16:57:51.777Z,90.37
2022-12-16T17:00:38.104Z,93.03
2022-12-16T17:03:23.937Z,92.84
2022-12-16T17:06:10.356Z,93.36
2022-12-16T17:08:56.705Z,94.40
2022-12-16T17:11:42.990Z,92.62
2022-12-16T17:14:34.263Z,93.27
2022-12-16T17:17:21.170Z,94.11
2022-12-16T17:20:07.099Z,92.17
2022-12-16T17:22:53.774Z,94.46
2022-12-16T17:25:39.749Z,89.54
2022-12-16T17:28:26.561Z,87.63
2022-12-16T17:31:12.667Z,88.17
2022-12-16T17:33:59.052Z,88.53
2022-12-16T17:36:44.969Z,89.65
2022-12-16T17:39:31.380Z,89.96
2022-12-16T17:42:17.862Z,90.46
2022-12-16T17:45:03.879Z,90.21
2022-12-16T17:47:50.252Z,90.73
2022-12-16T17:50:36.676Z,92.74
2022-12-16T17:53:22.832Z,93.97
2022-12-16T17:56:09.437Z,93.41
2022-12-16T17:58:57.172Z,92.55
2022-12-16T18:01:44.763Z,93.19
2022-12-16T18:04:31.862Z,91.65
2022-12-16T18:07:18.001Z,91.70
2022-12-16T18:10:04.685Z,92.26
2022-12-16T18:12:51.298Z,92.27
2022-12-16T18:15:37.990Z,92.37
2022-12-16T18:18:24.724Z,91.42
2022-12-16T18:21:15.837Z,91.19
2022-12-16T18:24:01.568Z,91.63
2022-12-16T18:26:47.989Z,91.54
2022-12-16T18:29:34.077Z,92.72
2022-12-16T18:32:21.012Z,97.08
2022-12-16T18:35:08.676Z,92.79
2022-12-16T18:37:55.201Z,90.97
2022-12-16T18:40:42.134Z,92.10
2022-12-16T18:43:28.852Z,94.73
2022-12-16T18:46:15.250Z,93.58
2022-12-16T18:49:01.969Z,92.15
2022-12-16T18:52:07.769Z,91.29
2022-12-16T18:54:53.840Z,90.84
2022-12-16T18:57:40.211Z,96.45
2022-12-16T19:00:27.783Z,92.81
2022-12-16T19:03:13.984Z,95.02
2022-12-16T19:06:00.334Z,94.65
2022-12-16T19:08:48.556Z,93.93
2022-12-16T19:11:35.546Z,92.67
2022-12-16T19:14:21.991Z,90.71
2022-12-16T19:17:09.562Z,97.55
2022-12-16T19:19:55.562Z,92.76
2022-12-16T19:22:42.572Z,93.22
2022-12-16T19:25:29.208Z,90.79
2022-12-16T19:28:17.194Z,89.95
2022-12-16T19:31:15.425Z,92.20
2022-12-16T19:34:03.146Z,94.82
2022-12-16T19:36:50.509Z,92.71
2022-12-16T19:39:36.889Z,93.52
2022-12-16T19:42:23.402Z,95.09
2022-12-16T19:45:09.889Z,96.25
2022-12-16T19:47:55.757Z,95.91
2022-12-16T19:50:43.207Z,95.21
2022-12-16T19:53:29.438Z,92.92
2022-12-16T19:56:19.286Z,93.02
2022-12-16T19:59:05.694Z,94.14
2022-12-16T20:01:52.346Z,93.33
2022-12-16T20:04:41.771Z,95.32
2022-12-16T20:07:27.841Z,93.66
2022-12-16T20:10:14.136Z,93.03
2022-12-16T20:13:00.549Z,92.59
2022-12-16T20:15:47.638Z,93.35
2022-12-16T20:18:33.751Z,93.82
2022-12-16T20:21:23.508Z,95.15
2022-12-16T20:24:09.927Z,97.64
2022-12-16T20:26:56.673Z,94.26
2022-12-16T20:29:43.909Z,94.95
2022-12-16T20:32:30.517Z,95.25
2022-12-16T20:35:16.860Z,93.89
2022-12-16T20:38:03.860Z,93.39
2022-12-16T20:40:50.485Z,93.44
2022-12-16T20:43:43.278Z,94.25
2022-12-16T20:46:29.940Z,94.96
2022-12-16T20:49:16.549Z,95.48
2022-12-16T20:52:02.887Z,93.89
2022-12-16T20:54:49.709Z,94.40
2022-12-16T20:57:36.111Z,94.35
2022-12-16T21:00:23.068Z,95.23
2022-12-16T21:03:09.003Z,94.71
2022-12-16T21:05:56.766Z,95.28
2022-12-16T21:08:42.689Z,94.79
2022-12-16T21:11:29.755Z,94.64
2022-12-16T21:14:16.340Z,95.32
2022-12-16T21:17:02.298Z,94.76
2022-12-16T21:19:49.190Z,95.24
2022-12-16T21:22:35.664Z,94.90
2022-12-16T21:25:24.816Z,93.77
2022-12-16T21:28:15.246Z,93.63
2022-12-16T21:31:01.706Z,95.32
2022-12-16T21:33:48.650Z,93.58
2022-12-16T21:36:34.982Z,92.81
2022-12-16T21:39:22.546Z,92.87
2022-12-16T21:42:08.688Z,93.00
2022-12-16T21:44:56.371Z,93.28
2022-12-16T21:47:42.320Z,93.39
2022-12-16T21:50:28.736Z,93.84
2022-12-16T21:53:14.653Z,92.76
2022-12-16T21:56:01.018Z,91.78
2022-12-16T21:58:46.941Z,91.46
2022-12-16T22:01:33.307Z,93.43
2022-12-16T22:04:19.785Z,93.65
2022-12-16T22:07:05.763Z,93.22
2022-12-16T22:09:52.009Z,92.13
2022-12-16T22:12:38.041Z,92.30
2022-12-16T22:15:24.862Z,93.83
2022-12-16T22:18:10.933Z,93.76
2022-12-16T22:20:57.312Z,93.87
2022-12-16T22:23:49.381Z,93.33
2022-12-16T22:26:35.554Z,93.42
2022-12-16T22:29:22.047Z,94.03
2022-12-16T22:32:08.398Z,93.96
2022-12-16T22:34:55.609Z,94.06
2022-12-16T22:37:41.947Z,93.60
2022-12-16T22:40:28.419Z,92.89
2022-12-16T22:43:14.328Z,92.30
2022-12-16T22:46:00.606Z,92.59
2022-12-16T22:48:46.832Z,92.37
2022-12-16T22:51:33.791Z,91.47
2022-12-16T22:54:20.488Z,92.77
2022-12-16T22:57:07.673Z,92.64
2022-12-16T22:59:53.607Z,93.08
2022-12-16T23:02:39.768Z,92.06
2022-12-16T23:05:28.052Z,91.17
2022-12-16T23:08:14.754Z,92.76
2022-12-16T23:11:01.635Z,92.80
2022-12-16T23:13:47.803Z,93.54
2022-12-16T23:16:34.164Z,94.61
2022-12-16T23:19:19.976Z,94.06
2022-12-16T23:22:07.606Z,93.14
2022-12-16T23:24:53.534Z,93.47
2022-12-16T23:27:40.142Z,92.32
2022-12-16T23:30:27.195Z,92.29
2022-12-16T23:33:17.271Z,91.75
2022-12-16T23:36:03.226Z,92.62
2022-12-16T23:38:49.372Z,92.60
2022-12-16T23:41:35.325Z,93.33
2022-12-16T23:44:21.803Z,93.44
2022-12-16T23:47:07.663Z,93.37
2022-12-16T23:49:53.860Z,93.07
2022-12-16T23:52:42.904Z,93.45
2022-12-16T23:55:29.261Z,92.86
2022-12-16T23:58:22.307Z,92.45
